EWG3CA LSZH-LEPA
Flight info
| Callsign | EWG3CA |
|---|---|
| Flight time | N/A |
| Altitude | 35000 |
| Route | VEBIT T50 ROTOS Z669 ULMES DCT VADAR DCT GEVEA DCT INCUS DCT BALSI DCT RETNO DCT TUPOX DCT MTG DCT DIVKO DCT VATIR DCT PIVUS DCT BODEQ DCT VERSO L129 LUNIK |
| Aircraft | A320/M-SDE3FGHIRWY/LB1 |
Departure
| Time | 2026-05-06 07:15 |
|---|---|
| Airport | Zürich Airport (LSZH) |
Arrival
| Time | N/A |
|---|---|
| Airport | Palma de Mallorca Airport (LEPA) |
| Time | Latitude | Longitude | Altitude | Speed | Heading |
|---|---|---|---|---|---|
| 2026-05-06 06:54 | 47.45410 | 8.56061 | 1397 ft | 0 kts | 186° |
| 2026-05-06 07:08 | 47.45414 | 8.56062 | 1397 ft | 3 kts | 186° |
| 2026-05-06 07:08 | 47.45440 | 8.56064 | 1401 ft | 4 kts | 178° |
| 2026-05-06 07:09 | 47.45467 | 8.56059 | 1401 ft | 4 kts | 159° |
| 2026-05-06 07:09 | 47.45486 | 8.56040 | 1400 ft | 4 kts | 106° |
| 2026-05-06 07:09 | 47.45488 | 8.56026 | 1400 ft | 1 kts | 96° |
| 2026-05-06 07:12 | 47.45486 | 8.56055 | 1398 ft | 6 kts | 96° |
| 2026-05-06 07:12 | 47.45480 | 8.56148 | 1397 ft | 10 kts | 96° |
| 2026-05-06 07:12 | 47.45498 | 8.56252 | 1403 ft | 13 kts | 50° |
| 2026-05-06 07:12 | 47.45558 | 8.56359 | 1397 ft | 14 kts | 50° |
| 2026-05-06 07:13 | 47.45593 | 8.56488 | 1397 ft | 14 kts | 93° |
| 2026-05-06 07:13 | 47.45584 | 8.56630 | 1399 ft | 17 kts | 96° |
| 2026-05-06 07:13 | 47.45570 | 8.56826 | 1397 ft | 20 kts | 96° |
| 2026-05-06 07:13 | 47.45578 | 8.56996 | 1406 ft | 14 kts | 44° |
| 2026-05-06 07:14 | 47.45630 | 8.57025 | 1398 ft | 0 kts | 11° |
| 2026-05-06 07:14 | 47.45642 | 8.57026 | 1398 ft | 7 kts | 5° |
| 2026-05-06 07:14 | 47.45666 | 8.56974 | 1403 ft | 9 kts | 281° |
| 2026-05-06 07:14 | 47.45688 | 8.56644 | 1395 ft | 67 kts | 276° |
| 2026-05-06 07:15 | 47.45758 | 8.55639 | 1396 ft | 127 kts | 276° |
| 2026-05-06 07:15 | 47.45877 | 8.54103 | 1471 ft | 166 kts | 278° |
| 2026-05-06 07:15 | 47.45998 | 8.52490 | 2274 ft | 153 kts | 276° |
| 2026-05-06 07:15 | 47.46098 | 8.50882 | 2764 ft | 163 kts | 276° |
| 2026-05-06 07:16 | 47.46214 | 8.49121 | 2994 ft | 183 kts | 274° |
| 2026-05-06 07:16 | 47.45910 | 8.47230 | 3209 ft | 206 kts | 233° |
| 2026-05-06 07:16 | 47.44808 | 8.45684 | 3459 ft | 231 kts | 221° |
| 2026-05-06 07:16 | 47.43584 | 8.43967 | 3858 ft | 254 kts | 229° |
| 2026-05-06 07:17 | 47.42453 | 8.41892 | 4620 ft | 262 kts | 234° |
| 2026-05-06 07:17 | 47.41370 | 8.39700 | 5474 ft | 266 kts | 234° |
| 2026-05-06 07:17 | 47.40290 | 8.37458 | 6329 ft | 271 kts | 234° |
| 2026-05-06 07:17 | 47.39187 | 8.35178 | 7119 ft | 275 kts | 233° |
| 2026-05-06 07:18 | 47.38241 | 8.32716 | 7970 ft | 278 kts | 244° |
| 2026-05-06 07:18 | 47.37399 | 8.30135 | 8868 ft | 279 kts | 242° |
| 2026-05-06 07:18 | 47.36510 | 8.27578 | 9731 ft | 282 kts | 240° |
| 2026-05-06 07:18 | 47.35587 | 8.25002 | 10526 ft | 286 kts | 240° |
| 2026-05-06 07:19 | 47.34624 | 8.22337 | 10925 ft | 305 kts | 240° |
| 2026-05-06 07:19 | 47.33947 | 8.20461 | 11058 ft | 321 kts | 240° |
| 2026-05-06 07:19 | 47.32868 | 8.17462 | 11368 ft | 339 kts | 240° |
| 2026-05-06 07:19 | 47.31751 | 8.14350 | 11992 ft | 346 kts | 240° |
| 2026-05-06 07:20 | 47.30626 | 8.11199 | 12707 ft | 350 kts | 241° |
| 2026-05-06 07:20 | 47.29490 | 8.08007 | 13435 ft | 353 kts | 241° |
| 2026-05-06 07:20 | 47.28342 | 8.04780 | 14071 ft | 357 kts | 241° |
| 2026-05-06 07:20 | 47.27186 | 8.01527 | 14704 ft | 360 kts | 241° |
| 2026-05-06 07:21 | 47.26137 | 7.98156 | 15336 ft | 363 kts | 242° |
| 2026-05-06 07:21 | 47.24734 | 7.95079 | 15963 ft | 363 kts | 225° |
| 2026-05-06 07:21 | 47.22781 | 7.92761 | 16596 ft | 363 kts | 210° |
| 2026-05-06 07:21 | 47.20602 | 7.90846 | 17265 ft | 365 kts | 208° |
| 2026-05-06 07:22 | 47.18410 | 7.88960 | 17929 ft | 367 kts | 208° |
| 2026-05-06 07:22 | 47.16192 | 7.87074 | 18539 ft | 369 kts | 208° |
| 2026-05-06 07:22 | 47.13956 | 7.85178 | 19114 ft | 372 kts | 208° |
| 2026-05-06 07:22 | 47.11709 | 7.83268 | 19678 ft | 374 kts | 208° |
| 2026-05-06 07:23 | 47.09453 | 7.81342 | 20232 ft | 376 kts | 208° |
| 2026-05-06 07:23 | 47.07185 | 7.79402 | 20789 ft | 379 kts | 208° |
| 2026-05-06 07:23 | 47.04898 | 7.77448 | 21316 ft | 381 kts | 208° |
| 2026-05-06 07:23 | 47.02599 | 7.75486 | 21856 ft | 383 kts | 208° |
| 2026-05-06 07:24 | 47.00284 | 7.73515 | 22376 ft | 386 kts | 208° |
| 2026-05-06 07:24 | 46.97957 | 7.71537 | 22890 ft | 388 kts | 208° |
| 2026-05-06 07:24 | 46.95615 | 7.69546 | 23403 ft | 390 kts | 208° |
| 2026-05-06 07:24 | 46.93257 | 7.67547 | 23844 ft | 392 kts | 208° |
| 2026-05-06 07:25 | 46.90895 | 7.65546 | 24315 ft | 393 kts | 209° |
| 2026-05-06 07:25 | 46.88532 | 7.63545 | 24845 ft | 393 kts | 209° |
| 2026-05-06 07:25 | 46.86165 | 7.61539 | 25327 ft | 393 kts | 209° |
| 2026-05-06 07:25 | 46.83801 | 7.59541 | 25786 ft | 393 kts | 209° |
| 2026-05-06 07:26 | 46.81429 | 7.57540 | 26223 ft | 393 kts | 209° |
| 2026-05-06 07:26 | 46.79090 | 7.55569 | 26639 ft | 394 kts | 209° |
| 2026-05-06 07:26 | 46.76714 | 7.53568 | 27048 ft | 394 kts | 209° |
| 2026-05-06 07:26 | 46.74336 | 7.51570 | 27458 ft | 395 kts | 209° |
| 2026-05-06 07:27 | 46.71948 | 7.49572 | 27781 ft | 395 kts | 210° |
| 2026-05-06 07:27 | 46.69562 | 7.47576 | 28139 ft | 395 kts | 209° |
| 2026-05-06 07:27 | 46.67179 | 7.45581 | 28543 ft | 395 kts | 210° |
| 2026-05-06 07:27 | 46.64798 | 7.43581 | 28922 ft | 395 kts | 210° |
| 2026-05-06 07:28 | 46.62418 | 7.41579 | 29284 ft | 395 kts | 210° |
| 2026-05-06 07:28 | 46.60034 | 7.39577 | 29598 ft | 397 kts | 210° |
| 2026-05-06 07:28 | 46.55239 | 7.35576 | 30142 ft | 398 kts | 209° |
| 2026-05-06 07:29 | 46.52821 | 7.33625 | 30456 ft | 397 kts | 208° |
| 2026-05-06 07:29 | 46.50401 | 7.31719 | 30768 ft | 395 kts | 208° |
| 2026-05-06 07:29 | 46.47972 | 7.29829 | 31087 ft | 394 kts | 208° |
| 2026-05-06 07:29 | 46.45556 | 7.27950 | 31394 ft | 394 kts | 208° |
| 2026-05-06 07:30 | 46.43151 | 7.26076 | 31715 ft | 393 kts | 208° |
| 2026-05-06 07:30 | 46.40743 | 7.24191 | 32019 ft | 393 kts | 208° |
| 2026-05-06 07:30 | 46.38337 | 7.22304 | 32270 ft | 394 kts | 208° |
| 2026-05-06 07:30 | 46.35926 | 7.20406 | 32517 ft | 395 kts | 208° |
| 2026-05-06 07:31 | 46.33513 | 7.18507 | 32816 ft | 394 kts | 208° |
| 2026-05-06 07:31 | 46.31097 | 7.16607 | 33103 ft | 393 kts | 208° |
| 2026-05-06 07:31 | 46.28697 | 7.14725 | 33402 ft | 393 kts | 208° |
| 2026-05-06 07:31 | 46.26295 | 7.12849 | 33724 ft | 392 kts | 208° |
| 2026-05-06 07:32 | 46.23893 | 7.10976 | 34008 ft | 392 kts | 208° |
| 2026-05-06 07:32 | 46.21496 | 7.09108 | 34220 ft | 392 kts | 208° |
| 2026-05-06 07:32 | 46.19090 | 7.07231 | 34368 ft | 395 kts | 208° |
| 2026-05-06 07:32 | 46.16672 | 7.05347 | 34599 ft | 395 kts | 208° |
| 2026-05-06 07:33 | 46.14238 | 7.03455 | 34785 ft | 396 kts | 208° |
| 2026-05-06 07:33 | 46.11807 | 7.01568 | 34846 ft | 397 kts | 208° |
| 2026-05-06 07:33 | 46.06946 | 6.97798 | 34855 ft | 397 kts | 208° |
| 2026-05-06 07:34 | 46.02084 | 6.94026 | 34860 ft | 397 kts | 208° |
| 2026-05-06 07:34 | 45.97219 | 6.90265 | 34864 ft | 397 kts | 208° |
| 2026-05-06 07:35 | 45.92349 | 6.86512 | 34868 ft | 396 kts | 208° |
| 2026-05-06 07:35 | 45.87523 | 6.82792 | 34874 ft | 396 kts | 208° |
| 2026-05-06 07:36 | 45.82639 | 6.79043 | 34872 ft | 396 kts | 208° |
| 2026-05-06 07:36 | 45.77779 | 6.75320 | 34867 ft | 396 kts | 208° |
| 2026-05-06 07:37 | 45.72918 | 6.71606 | 34847 ft | 396 kts | 208° |
| 2026-05-06 07:37 | 45.68055 | 6.67892 | 34853 ft | 396 kts | 208° |
| 2026-05-06 07:38 | 45.63193 | 6.64177 | 34882 ft | 397 kts | 208° |
| 2026-05-06 07:38 | 45.58317 | 6.60473 | 34851 ft | 398 kts | 208° |
| 2026-05-06 07:39 | 45.53442 | 6.56781 | 34849 ft | 398 kts | 208° |
| 2026-05-06 07:39 | 45.48729 | 6.52666 | 34849 ft | 399 kts | 224° |
| 2026-05-06 07:40 | 45.47050 | 6.49524 | 34851 ft | 401 kts | 235° |
| 2026-05-06 07:40 | 45.45529 | 6.46186 | 34846 ft | 401 kts | 233° |
| 2026-05-06 07:40 | 45.42397 | 6.39596 | 34846 ft | 402 kts | 233° |
| 2026-05-06 07:41 | 45.39253 | 6.33003 | 34848 ft | 403 kts | 233° |
| 2026-05-06 07:41 | 45.36097 | 6.26416 | 34851 ft | 402 kts | 233° |
| 2026-05-06 07:42 | 45.32850 | 6.19933 | 34858 ft | 401 kts | 224° |
| 2026-05-06 07:42 | 45.30705 | 6.17458 | 34879 ft | 399 kts | 210° |
| 2026-05-06 07:42 | 45.28245 | 6.15634 | 34869 ft | 399 kts | 207° |
| 2026-05-06 07:43 | 45.23264 | 6.12118 | 34851 ft | 401 kts | 207° |
| 2026-05-06 07:43 | 45.18250 | 6.08625 | 34844 ft | 402 kts | 207° |
| 2026-05-06 07:44 | 45.13231 | 6.05120 | 34861 ft | 402 kts | 207° |
| 2026-05-06 07:44 | 45.08211 | 6.01596 | 34870 ft | 403 kts | 207° |
| 2026-05-06 07:45 | 45.03183 | 5.98084 | 34868 ft | 403 kts | 208° |
| 2026-05-06 07:45 | 44.98157 | 5.94582 | 34880 ft | 402 kts | 207° |
| 2026-05-06 07:46 | 44.93132 | 5.91090 | 34891 ft | 403 kts | 207° |
| 2026-05-06 07:46 | 44.88104 | 5.87599 | 34902 ft | 402 kts | 207° |
| 2026-05-06 07:47 | 44.83085 | 5.84114 | 34887 ft | 401 kts | 208° |
| 2026-05-06 07:47 | 44.78054 | 5.80727 | 34897 ft | 402 kts | 206° |
| 2026-05-06 07:48 | 44.72911 | 5.77636 | 34900 ft | 401 kts | 205° |
| 2026-05-06 07:48 | 44.67759 | 5.74632 | 34899 ft | 401 kts | 205° |
| 2026-05-06 07:49 | 44.62617 | 5.71583 | 34904 ft | 401 kts | 205° |
| 2026-05-06 07:49 | 44.57514 | 5.68517 | 34912 ft | 402 kts | 205° |
| 2026-05-06 07:50 | 44.52369 | 5.65431 | 34908 ft | 402 kts | 205° |
| 2026-05-06 07:50 | 44.47214 | 5.62349 | 34895 ft | 403 kts | 205° |
| 2026-05-06 07:51 | 44.42059 | 5.59274 | 34898 ft | 403 kts | 205° |
| 2026-05-06 07:51 | 44.36891 | 5.56199 | 34902 ft | 403 kts | 205° |
| 2026-05-06 07:52 | 44.31725 | 5.53133 | 34905 ft | 404 kts | 205° |
| 2026-05-06 07:52 | 44.26552 | 5.50071 | 34883 ft | 403 kts | 205° |
| 2026-05-06 07:53 | 44.21389 | 5.47017 | 34894 ft | 403 kts | 205° |
| 2026-05-06 07:53 | 44.16207 | 5.43960 | 34902 ft | 404 kts | 205° |
| 2026-05-06 07:54 | 44.11036 | 5.40912 | 34908 ft | 403 kts | 205° |
| 2026-05-06 07:54 | 44.05866 | 5.37885 | 34900 ft | 402 kts | 206° |
| 2026-05-06 07:55 | 44.00713 | 5.34858 | 34912 ft | 402 kts | 206° |
| 2026-05-06 07:55 | 43.95560 | 5.31828 | 34934 ft | 403 kts | 206° |
| 2026-05-06 07:56 | 43.90402 | 5.28807 | 34901 ft | 403 kts | 206° |
| 2026-05-06 07:56 | 43.85233 | 5.25794 | 34906 ft | 402 kts | 206° |
| 2026-05-06 07:57 | 43.80086 | 5.22796 | 34910 ft | 403 kts | 206° |
| 2026-05-06 07:57 | 43.74920 | 5.19792 | 34917 ft | 403 kts | 206° |
| 2026-05-06 07:58 | 43.69760 | 5.16798 | 34897 ft | 402 kts | 206° |
| 2026-05-06 07:58 | 43.64604 | 5.13817 | 34930 ft | 401 kts | 206° |
| 2026-05-06 07:59 | 43.60327 | 5.11343 | 34935 ft | 401 kts | 206° |
| 2026-05-06 07:59 | 43.55186 | 5.08374 | 34938 ft | 401 kts | 206° |
| 2026-05-06 08:00 | 43.50043 | 5.05412 | 34920 ft | 400 kts | 206° |
| 2026-05-06 08:00 | 43.44919 | 5.02465 | 34928 ft | 399 kts | 206° |
| 2026-05-06 08:01 | 43.39783 | 4.99518 | 34937 ft | 399 kts | 206° |
| 2026-05-06 08:01 | 43.34656 | 4.96588 | 34943 ft | 399 kts | 206° |
| 2026-05-06 08:02 | 43.29517 | 4.93659 | 34944 ft | 399 kts | 206° |
| 2026-05-06 08:02 | 43.24381 | 4.90720 | 34945 ft | 399 kts | 206° |
| 2026-05-06 08:03 | 43.19257 | 4.87797 | 34941 ft | 399 kts | 206° |
| 2026-05-06 08:03 | 43.14128 | 4.84881 | 34943 ft | 399 kts | 206° |
| 2026-05-06 08:04 | 43.09040 | 4.81992 | 34927 ft | 398 kts | 206° |
| 2026-05-06 08:04 | 43.03920 | 4.79087 | 34941 ft | 397 kts | 206° |
| 2026-05-06 08:05 | 42.98818 | 4.76188 | 34944 ft | 397 kts | 207° |
| 2026-05-06 08:05 | 42.93720 | 4.73300 | 34945 ft | 397 kts | 206° |
| 2026-05-06 08:06 | 42.88617 | 4.70430 | 34937 ft | 396 kts | 206° |
| 2026-05-06 08:06 | 42.83523 | 4.67574 | 34941 ft | 396 kts | 206° |
| 2026-05-06 08:07 | 42.78429 | 4.64711 | 34939 ft | 395 kts | 206° |
| 2026-05-06 08:07 | 42.73342 | 4.61854 | 34944 ft | 396 kts | 206° |
| 2026-05-06 08:08 | 42.68251 | 4.59009 | 34948 ft | 396 kts | 206° |
| 2026-05-06 08:08 | 42.63153 | 4.56163 | 34970 ft | 396 kts | 206° |
| 2026-05-06 08:09 | 42.58050 | 4.53316 | 34957 ft | 397 kts | 206° |
| 2026-05-06 08:09 | 42.52937 | 4.50470 | 34952 ft | 397 kts | 206° |
| 2026-05-06 08:10 | 42.47826 | 4.47628 | 34933 ft | 397 kts | 206° |
| 2026-05-06 08:10 | 42.42755 | 4.44819 | 34940 ft | 396 kts | 206° |
| 2026-05-06 08:11 | 42.37648 | 4.41993 | 34948 ft | 396 kts | 206° |
| 2026-05-06 08:11 | 42.32545 | 4.39170 | 34950 ft | 396 kts | 206° |
| 2026-05-06 08:12 | 42.27435 | 4.36352 | 34931 ft | 396 kts | 206° |
| 2026-05-06 08:12 | 42.22324 | 4.33539 | 34940 ft | 397 kts | 206° |
| 2026-05-06 08:13 | 42.17209 | 4.30727 | 34945 ft | 397 kts | 206° |
| 2026-05-06 08:13 | 42.12090 | 4.27919 | 34961 ft | 397 kts | 206° |
| 2026-05-06 08:14 | 42.06971 | 4.25114 | 34943 ft | 397 kts | 206° |
| 2026-05-06 08:14 | 42.01838 | 4.22310 | 34956 ft | 398 kts | 206° |
| 2026-05-06 08:15 | 41.96712 | 4.19516 | 34964 ft | 398 kts | 206° |
| 2026-05-06 08:15 | 41.91581 | 4.16717 | 34979 ft | 399 kts | 206° |
| 2026-05-06 08:16 | 41.86444 | 4.13915 | 34953 ft | 398 kts | 207° |
| 2026-05-06 08:16 | 41.81308 | 4.11113 | 34965 ft | 398 kts | 206° |
| 2026-05-06 08:17 | 41.76164 | 4.08343 | 34969 ft | 398 kts | 206° |
| 2026-05-06 08:17 | 41.71025 | 4.05566 | 34973 ft | 398 kts | 206° |
| 2026-05-06 08:18 | 41.65895 | 4.02786 | 34963 ft | 397 kts | 207° |
| 2026-05-06 08:18 | 41.60807 | 4.00033 | 34975 ft | 397 kts | 207° |
| 2026-05-06 08:19 | 41.55687 | 3.97277 | 34981 ft | 397 kts | 206° |
| 2026-05-06 08:19 | 41.50573 | 3.94530 | 34980 ft | 396 kts | 207° |
| 2026-05-06 08:20 | 41.45461 | 3.91786 | 34954 ft | 395 kts | 206° |
| 2026-05-06 08:20 | 41.40356 | 3.89042 | 34965 ft | 395 kts | 206° |
| 2026-05-06 08:21 | 41.35251 | 3.86316 | 34971 ft | 395 kts | 206° |